Time;durP1;ratioP1;P1;durP2;ratioP2;P2;SDS_P1;SDS_P2;PMS_P1;PMS_P2;Temp;Humidity;BMP_temperature;BMP_pressure;BME280_temperature;BME280_humidity;BME280_pressure;Samples;Min_cycle;Max_cycle;Signal;HPM_P1;HPM_P2
2021/06/21 00:01:37;;;;;;;9.63;2.50;;;;;;;20.07;100.00;100605.84;1792544;79;21084;-83
2021/06/21 00:04:03;;;;;;;5.45;2.90;;;;;;;20.08;100.00;100608.80;1815155;78;21482;-83
2021/06/21 00:06:28;;;;;;;8.08;2.60;;;;;;;20.11;100.00;100610.89;1814993;79;20970;-84
2021/06/21 00:08:55;;;;;;;7.03;3.40;;;;;;;20.08;100.00;100604.13;1814858;78;21085;-85
2021/06/21 00:11:21;;;;;;;4.87;2.95;;;;;;;20.06;100.00;100608.31;1814717;79;21455;-83
2021/06/21 00:13:47;;;;;;;6.90;2.80;;;;;;;20.01;100.00;100607.92;1815026;79;20992;-83
2021/06/21 00:16:13;;;;;;;10.85;3.27;;;;;;;19.98;100.00;100602.30;1815085;79;21011;-82
2021/06/21 00:18:39;;;;;;;9.15;2.80;;;;;;;19.96;100.00;100599.31;1815008;78;21522;-83
2021/06/21 00:21:05;;;;;;;8.18;2.47;;;;;;;19.94;100.00;100599.39;1814751;78;21067;-82
2021/06/21 00:23:31;;;;;;;13.08;3.08;;;;;;;19.95;100.00;100601.81;1814741;79;20955;-82
2021/06/21 00:25:57;;;;;;;6.95;2.77;;;;;;;19.96;100.00;100599.87;1814750;78;21045;-82
2021/06/21 00:28:23;;;;;;;9.40;2.83;;;;;;;20.01;100.00;100603.83;1815108;78;20817;-82
2021/06/21 00:30:49;;;;;;;9.43;3.08;;;;;;;20.06;100.00;100598.20;1815235;79;21458;-83
2021/06/21 00:33:16;;;;;;;8.70;2.62;;;;;;;20.10;100.00;100606.55;1815144;78;21140;-82
2021/06/21 00:35:42;;;;;;;10.35;2.92;;;;;;;20.15;100.00;100607.20;1814946;79;21090;-83
2021/06/21 00:38:09;;;;;;;9.48;2.55;;;;;;;20.19;100.00;100605.98;1815111;79;21097;-83
2021/06/21 00:40:37;;;;;;;6.45;2.22;;;;;;;20.20;100.00;100609.74;1814920;78;21038;-83
2021/06/21 00:43:06;;;;;;;14.15;2.77;;;;;;;20.23;100.00;100608.30;1815296;79;21035;-82
2021/06/21 00:45:33;;;;;;;7.55;2.90;;;;;;;20.25;100.00;100609.35;1815153;78;21526;-83
2021/06/21 00:47:58;;;;;;;9.75;2.67;;;;;;;20.28;100.00;100611.44;1815005;78;21307;-84
2021/06/21 00:50:28;;;;;;;8.05;2.77;;;;;;;20.32;100.00;100612.38;1814888;78;20955;-82
2021/06/21 00:53:00;;;;;;;11.25;2.87;;;;;;;20.31;100.00;100611.59;1814530;79;21353;-82
2021/06/21 00:55:29;;;;;;;12.28;2.45;;;;;;;20.28;100.00;100610.87;1815006;78;20991;-82
2021/06/21 00:57:55;;;;;;;9.48;2.37;;;;;;;20.20;100.00;100607.00;1792200;79;21153;-89
2021/06/21 01:00:25;;;;;;;6.35;2.70;;;;;;;20.10;100.00;100610.09;1815010;79;21159;-82
2021/06/21 01:02:52;;;;;;;5.78;2.60;;;;;;;20.01;100.00;100609.30;1814908;78;20964;-83
2021/06/21 01:05:27;;;;;;;10.10;2.50;;;;;;;19.98;100.00;100610.52;1814931;78;21051;-83
2021/06/21 01:07:54;;;;;;;12.28;3.20;;;;;;;19.94;100.00;100609.79;1814695;78;21038;-83
2021/06/21 01:10:24;;;;;;;11.70;2.87;;;;;;;19.94;100.00;100615.27;1814976;79;21955;-82
2021/06/21 01:13:10;;;;;;;12.68;2.65;;;;;;;19.98;100.00;100615.98;1814958;78;21050;-80
2021/06/21 01:15:45;;;;;;;13.32;2.72;;;;;;;20.03;100.00;100618.53;1811828;78;21538;-81
2021/06/21 01:18:28;;;;;;;9.43;2.95;;;;;;;20.08;100.00;100622.48;1814740;78;20995;-82
2021/06/21 01:21:27;;;;;;;8.88;2.60;;;;;;;20.13;100.00;100626.43;1815445;79;20987;-82
2021/06/21 01:24:36;;;;;;;11.05;2.47;;;;;;;20.17;100.00;100616.44;1814188;78;21896;-82
2021/06/21 01:27:22;;;;;;;15.68;2.40;;;;;;;20.20;100.00;100621.26;1814703;79;21023;-82
2021/06/21 01:30:14;;;;;;;6.33;2.30;;;;;;;20.22;100.00;100624.48;1814733;78;21004;-83
2021/06/21 01:32:44;;;;;;;16.27;3.58;;;;;;;20.24;100.00;100616.77;1792412;79;21481;-81
2021/06/21 01:35:31;;;;;;;11.28;2.47;;;;;;;20.27;100.00;100619.42;1814770;79;21006;-83
2021/06/21 01:38:01;;;;;;;13.38;2.90;;;;;;;20.30;100.00;100620.14;1815134;78;21091;-83
2021/06/21 01:40:33;;;;;;;21.00;4.22;;;;;;;20.31;100.00;100614.89;1814894;78;21057;-83
2021/06/21 01:43:02;;;;;;;23.18;3.80;;;;;;;20.30;100.00;100613.30;1814810;79;21554;-83
2021/06/21 01:45:30;;;;;;;22.58;4.00;;;;;;;20.31;100.00;100619.80;1815153;79;21027;-83
2021/06/21 01:47:56;;;;;;;22.37;3.52;;;;;;;20.33;100.00;100618.12;1815293;78;20984;-84
2021/06/21 01:50:25;;;;;;;25.92;4.00;;;;;;;20.33;100.00;100611.27;1814958;78;21940;-83
2021/06/21 01:52:57;;;;;;;25.20;4.50;;;;;;;20.36;100.00;100609.25;1802689;79;20984;-80
2021/06/21 01:55:25;;;;;;;29.07;4.55;;;;;;;20.35;100.00;100609.00;1704465;83;21063;-82
2021/06/21 01:57:52;;;;;;;34.13;4.53;;;;;;;20.32;100.00;100609.64;1710145;83;21084;-81
2021/06/21 02:00:20;;;;;;;27.52;5.00;;;;;;;20.30;100.00;100607.82;1710219;83;21551;-83
2021/06/21 02:02:49;;;;;;;29.48;5.40;;;;;;;20.28;100.00;100609.50;1710359;83;21127;-83
2021/06/21 02:05:16;;;;;;;36.48;6.30;;;;;;;20.29;100.00;100606.99;1710106;83;21635;-83
2021/06/21 02:07:46;;;;;;;34.58;5.47;;;;;;;20.31;100.00;100609.42;1709930;83;21625;-83
2021/06/21 02:10:13;;;;;;;45.43;6.30;;;;;;;20.33;100.00;100609.91;1710098;83;21013;-82
2021/06/21 02:12:41;;;;;;;43.52;6.95;;;;;;;20.35;100.00;100607.09;1710227;83;21092;-83
2021/06/21 02:15:08;;;;;;;54.25;6.97;;;;;;;20.38;100.00;100605.06;1710188;83;21163;-85
2021/06/21 02:17:37;;;;;;;65.75;8.18;;;;;;;20.41;100.00;100609.06;1709941;83;21108;-86
2021/06/21 02:20:05;;;;;;;59.55;8.33;;;;;;;20.46;100.00;100610.84;1709842;83;21120;-82
2021/06/21 02:22:32;;;;;;;68.28;8.80;;;;;;;20.50;100.00;100619.99;1710153;83;21163;-82
2021/06/21 02:25:02;;;;;;;73.05;8.63;;;;;;;20.53;100.00;100612.52;1710127;83;21062;-83
2021/06/21 02:27:30;;;;;;;58.83;8.93;;;;;;;20.56;100.00;100611.88;1710225;83;21059;-82
2021/06/21 02:29:56;;;;;;;84.60;8.40;;;;;;;20.60;100.00;100616.37;1709847;83;21024;-81
2021/06/21 02:32:23;;;;;;;84.30;8.98;;;;;;;20.63;100.00;100621.20;1735204;79;21008;-82
2021/06/21 02:34:51;;;;;;;89.28;10.63;;;;;;;20.67;100.00;100624.66;1798722;79;20988;-82
2021/06/21 02:37:17;;;;;;;103.87;10.85;;;;;;;20.72;100.00;100627.22;1798748;79;21016;-84
2021/06/21 02:39:43;;;;;;;127.17;11.05;;;;;;;20.78;100.00;100634.13;1798916;79;21823;-89
2021/06/21 02:42:10;;;;;;;122.37;11.10;;;;;;;20.85;100.00;100639.89;1798819;79;21440;-88
2021/06/21 02:44:36;;;;;;;146.90;13.68;;;;;;;20.93;100.00;100634.16;1798900;79;21015;-81
2021/06/21 02:47:04;;;;;;;121.85;12.65;;;;;;;20.99;100.00;100638.31;1798639;79;20944;-87
2021/06/21 02:49:30;;;;;;;115.05;13.25;;;;;;;21.04;100.00;100643.63;1799041;79;21091;-83
2021/06/21 02:52:04;;;;;;;131.82;12.15;;;;;;;21.08;100.00;100648.67;1803244;79;22027;-86
2021/06/21 02:55:06;;;;;;;153.50;13.93;;;;;;;21.13;100.00;100651.23;1807989;78;21024;-84
2021/06/21 02:57:43;;;;;;;144.80;11.63;;;;;;;21.20;100.00;100652.88;1815564;78;20977;-81
2021/06/21 03:00:09;;;;;;;149.65;12.90;;;;;;;21.24;100.00;100659.33;1812050;79;21078;-82
2021/06/21 03:02:39;;;;;;;129.87;11.93;;;;;;;21.29;100.00;100667.34;1813176;79;21549;-83
2021/06/21 03:05:06;;;;;;;136.00;14.43;;;;;;;21.33;100.00;100664.20;1814057;77;21880;-83
2021/06/21 03:07:34;;;;;;;132.22;12.82;;;;;;;21.42;100.00;100668.86;1815171;77;20979;-83
2021/06/21 03:10:01;;;;;;;123.58;14.10;;;;;;;21.50;100.00;100666.62;1790522;78;21086;-82
2021/06/21 03:12:29;;;;;;;136.40;14.15;;;;;;;21.65;100.00;100667.98;1813012;79;21600;-83
2021/06/21 03:14:56;;;;;;;148.32;12.75;;;;;;;21.71;100.00;100660.61;1813324;79;21617;-85
2021/06/21 03:17:24;;;;;;;126.18;13.22;;;;;;;21.81;100.00;100659.98;1813492;79;21166;-80
2021/06/21 03:19:51;;;;;;;141.68;12.90;;;;;;;21.90;100.00;100662.09;1813114;79;21007;-82
2021/06/21 03:22:23;;;;;;;152.72;15.50;;;;;;;21.98;100.00;100661.22;1813207;79;21475;-85
2021/06/21 03:24:53;;;;;;;152.40;14.50;;;;;;;22.05;100.00;100660.10;1812958;79;21043;-83
2021/06/21 03:27:30;;;;;;;168.95;14.47;;;;;;;22.13;100.00;100655.11;1817955;77;21010;-83
2021/06/21 03:29:58;;;;;;;152.80;14.55;;;;;;;22.22;100.00;100657.81;1813408;78;21057;-81
2021/06/21 03:32:31;;;;;;;152.87;14.78;;;;;;;22.32;100.00;100659.33;1814981;78;21011;-82
2021/06/21 03:35:05;;;;;;;136.55;15.58;;;;;;;22.44;100.00;100655.25;1814965;78;21467;-81
2021/06/21 03:37:31;;;;;;;151.63;15.13;;;;;;;22.58;100.00;100654.95;1815247;78;21491;-83
2021/06/21 03:39:57;;;;;;;160.60;15.05;;;;;;;22.72;100.00;100658.77;1812917;77;21023;-83
2021/06/21 03:42:24;;;;;;;153.00;16.35;;;;;;;22.87;100.00;100656.73;1827159;77;21147;-83
2021/06/21 03:44:51;;;;;;;178.85;14.68;;;;;;;23.00;100.00;100658.95;1829014;77;20971;-84
2021/06/21 03:47:17;;;;;;;169.17;17.50;;;;;;;23.15;100.00;100665.16;1848271;77;21019;-84
2021/06/21 03:49:46;;;;;;;186.67;17.95;;;;;;;23.30;100.00;100663.09;1848169;77;20980;-84
2021/06/21 03:52:12;;;;;;;172.70;16.30;;;;;;;23.47;100.00;100667.56;1836501;77;21465;-81
2021/06/21 03:54:38;;;;;;;165.97;15.32;;;;;;;23.53;100.00;100670.31;1825543;77;21087;-82
2021/06/21 03:57:06;;;;;;;170.05;17.10;;;;;;;23.63;100.00;100662.72;1815001;78;20984;-80
2021/06/21 03:59:33;;;;;;;209.52;17.70;;;;;;;23.74;100.00;100668.81;1814499;79;21023;-85
2021/06/21 04:01:59;;;;;;;157.37;16.87;;;;;;;23.85;100.00;100668.31;1828918;77;21003;-86
2021/06/21 04:04:27;;;;;;;168.43;17.15;;;;;;;23.86;100.00;100668.56;1815203;79;21137;-81
2021/06/21 04:06:53;;;;;;;164.85;16.35;;;;;;;23.89;100.00;100676.12;1824818;77;21074;-85
2021/06/21 04:09:19;;;;;;;210.25;17.42;;;;;;;23.94;100.00;100668.98;1817213;77;20998;-82
2021/06/21 04:11:46;;;;;;;171.35;17.90;;;;;;;24.03;100.00;100669.63;1834039;77;20999;-81
2021/06/21 04:14:14;;;;;;;177.47;16.02;;;;;;;24.14;100.00;100675.45;1823138;77;21589;-84
2021/06/21 04:16:41;;;;;;;166.22;17.50;;;;;;;24.31;100.00;100676.54;1847945;77;21018;-83
2021/06/21 04:19:08;;;;;;;174.72;18.52;;;;;;;24.48;100.00;100679.02;1821100;77;21922;-82
2021/06/21 04:21:34;;;;;;;181.45;18.02;;;;;;;24.68;100.00;100684.67;1815115;79;21035;-82
2021/06/21 04:24:00;;;;;;;174.32;16.35;;;;;;;24.80;100.00;100687.94;1820479;77;21488;-87
2021/06/21 04:26:26;;;;;;;182.30;18.07;;;;;;;24.92;100.00;100691.41;1829289;78;21024;-82
2021/06/21 04:28:52;;;;;;;181.65;18.98;;;;;;;25.04;100.00;100687.77;1826845;78;20883;-83
2021/06/21 04:31:18;;;;;;;184.20;18.35;;;;;;;25.22;100.00;100702.02;1814063;77;21952;-84
2021/06/21 04:33:45;;;;;;;178.47;18.80;;;;;;;25.40;100.00;100707.17;1822173;77;21000;-82
2021/06/21 04:36:11;;;;;;;180.07;16.30;;;;;;;25.53;100.00;100702.58;1817969;77;20986;-85
2021/06/21 04:38:38;;;;;;;171.40;17.45;;;;;;;25.65;100.00;100696.70;1848517;77;21016;-83
2021/06/21 04:41:05;;;;;;;174.25;17.62;;;;;;;25.62;100.00;100696.87;1848413;77;21554;-82
2021/06/21 04:43:31;;;;;;;191.80;17.23;;;;;;;25.56;100.00;100701.03;1848196;77;21996;-82
2021/06/21 04:45:57;;;;;;;193.28;17.45;;;;;;;25.63;100.00;100701.22;1848195;77;20880;-81
2021/06/21 04:48:23;;;;;;;180.00;17.52;;;;;;;25.85;100.00;100716.91;1848685;77;20883;-83
2021/06/21 04:50:49;;;;;;;174.50;18.30;;;;;;;25.91;100.00;100711.31;1835313;77;20901;-86
2021/06/21 04:53:15;;;;;;;189.87;17.95;;;;;;;26.03;100.00;100713.39;1833503;77;20987;-82
2021/06/21 04:55:41;;;;;;;185.20;17.50;;;;;;;25.98;100.00;100719.77;1848150;77;22458;-81
2021/06/21 04:58:07;;;;;;;170.90;17.40;;;;;;;25.71;100.00;100714.61;1848504;77;21011;-86
2021/06/21 05:00:33;;;;;;;161.40;16.75;;;;;;;25.34;100.00;100712.16;1848272;77;20861;-83
2021/06/21 05:02:59;;;;;;;202.47;16.97;;;;;;;25.06;100.00;100713.59;1844324;77;20861;-83
2021/06/21 05:05:25;;;;;;;197.50;17.70;;;;;;;24.89;100.00;100718.89;1848449;77;20845;-83
2021/06/21 05:07:54;;;;;;;175.50;17.42;;;;;;;24.87;100.00;100716.47;1848278;77;21080;-86
2021/06/21 05:10:23;;;;;;;172.90;17.17;;;;;;;25.21;100.00;100721.67;1848520;77;20952;-83
2021/06/21 05:12:49;;;;;;;177.27;18.45;;;;;;;25.72;100.00;100721.73;1848250;77;20961;-83
2021/06/21 05:15:16;;;;;;;172.10;16.90;;;;;;;26.25;100.00;100731.78;1848539;77;21554;-81
2021/06/21 05:17:42;;;;;;;176.07;18.85;;;;;;;26.61;100.00;100729.77;1848658;77;21034;-83
2021/06/21 05:20:10;;;;;;;175.57;16.00;;;;;;;26.96;100.00;100725.48;1848591;77;21738;-84
2021/06/21 05:22:36;;;;;;;189.47;18.75;;;;;;;27.25;100.00;100726.80;1844585;77;21050;-84
2021/06/21 05:25:04;;;;;;;153.62;16.17;;;;;;;27.51;100.00;100731.56;1848521;77;21600;-84
2021/06/21 05:27:31;;;;;;;169.25;17.82;;;;;;;27.78;100.00;100726.85;1848654;77;20968;-88
2021/06/21 05:29:58;;;;;;;168.37;17.60;;;;;;;28.13;100.00;100727.12;1848535;77;21030;-84
2021/06/21 05:32:25;;;;;;;172.72;18.20;;;;;;;28.18;100.00;100723.21;1848512;77;21077;-83
2021/06/21 05:34:51;;;;;;;190.85;17.75;;;;;;;28.25;100.00;100721.34;1824972;77;21511;-87
2021/06/21 05:37:17;;;;;;;187.53;18.75;;;;;;;28.28;98.20;100722.56;1848511;77;20959;-84
2021/06/21 05:39:42;;;;;;;186.47;16.90;;;;;;;28.30;97.73;100729.33;1848260;77;21557;-84
2021/06/21 05:42:09;;;;;;;198.65;18.87;;;;;;;28.36;97.82;100730.39;1848455;77;20979;-82
2021/06/21 05:44:36;;;;;;;196.60;18.07;;;;;;;28.44;95.14;100732.90;1848524;77;21107;-88
2021/06/21 05:47:04;;;;;;;184.40;17.87;;;;;;;28.53;93.80;100740.89;1820755;77;20956;-82
2021/06/21 05:49:29;;;;;;;189.32;18.67;;;;;;;28.51;93.03;100737.12;1848486;77;20976;-90
2021/06/21 05:51:57;;;;;;;153.40;16.67;;;;;;;28.62;92.90;100738.64;1825073;77;20856;-82
2021/06/21 05:54:23;;;;;;;182.00;17.25;;;;;;;28.86;90.59;100744.23;1828326;77;20988;-83
2021/06/21 05:56:49;;;;;;;160.45;16.48;;;;;;;28.95;89.83;100737.78;1826412;78;21070;-88
2021/06/21 05:59:17;;;;;;;194.57;18.25;;;;;;;29.21;90.92;100747.17;1826373;78;21036;-84
2021/06/21 06:01:43;;;;;;;183.60;16.95;;;;;;;29.23;84.03;100747.56;1826270;78;20965;-83
2021/06/21 06:04:09;;;;;;;163.22;16.20;;;;;;;29.15;87.80;100751.45;1826461;78;21542;-82
2021/06/21 06:06:34;;;;;;;184.70;17.73;;;;;;;29.16;81.39;100753.07;1823077;78;20952;-82
2021/06/21 06:09:00;;;;;;;193.60;20.00;;;;;;;29.20;81.01;100758.84;1826288;78;21081;-88
2021/06/21 06:11:26;;;;;;;189.28;17.55;;;;;;;29.35;82.54;100759.77;1826127;78;20916;-82
2021/06/21 06:13:52;;;;;;;176.50;17.07;;;;;;;29.52;79.65;100757.53;1805412;78;20842;-79
2021/06/21 06:16:18;;;;;;;167.28;18.40;;;;;;;29.79;79.85;100767.27;1805646;78;20908;-83
2021/06/21 06:18:44;;;;;;;142.10;17.15;;;;;;;30.05;76.87;100771.00;1826507;78;20984;-84
2021/06/21 06:21:13;;;;;;;163.40;16.67;;;;;;;30.31;79.62;100772.75;1826016;78;21113;-84
2021/06/21 06:23:40;;;;;;;169.20;17.55;;;;;;;30.61;77.57;100772.45;1826287;78;21531;-83
2021/06/21 06:26:07;;;;;;;172.17;16.27;;;;;;;30.67;72.91;100772.28;1826341;78;21032;-82
2021/06/21 06:28:34;;;;;;;171.85;16.75;;;;;;;30.71;75.41;100768.92;1826414;78;20961;-82
2021/06/21 06:31:00;;;;;;;179.75;16.77;;;;;;;31.02;73.00;100771.40;1826468;78;20981;-86
2021/06/21 06:33:26;;;;;;;169.55;17.52;;;;;;;31.21;70.27;100774.61;1826375;78;21905;-83
2021/06/21 06:35:52;;;;;;;163.45;15.78;;;;;;;31.32;70.44;100782.16;1826462;78;20837;-82
2021/06/21 06:38:18;;;;;;;165.10;16.48;;;;;;;31.26;66.99;100776.19;1826734;78;20948;-84
2021/06/21 06:40:44;;;;;;;168.43;18.25;;;;;;;31.14;65.77;100775.19;1826361;78;22553;-83
2021/06/21 06:43:10;;;;;;;185.07;19.67;;;;;;;31.08;67.00;100774.78;1826376;78;20952;-82
2021/06/21 06:45:36;;;;;;;149.00;16.05;;;;;;;31.24;67.62;100775.80;1805591;78;20925;-82
2021/06/21 06:48:02;;;;;;;176.00;17.30;;;;;;;31.64;71.02;100771.03;1817649;78;20976;-85
2021/06/21 06:50:28;;;;;;;151.22;16.50;;;;;;;31.94;64.99;100767.02;1796625;79;21040;-84
2021/06/21 06:52:55;;;;;;;151.50;18.48;;;;;;;31.89;63.88;100769.61;1784182;80;21068;-86
2021/06/21 06:58:06;;;;;;;149.57;14.35;;;;;;;31.90;63.14;100767.83;1768879;80;21091;-85
2021/06/21 07:00:34;;;;;;;157.97;15.35;;;;;;;32.12;63.36;100772.77;1765883;80;20962;-80
2021/06/21 07:03:00;;;;;;;144.93;15.25;;;;;;;32.05;61.95;100758.03;1765143;80;21017;-86
2021/06/21 07:05:27;;;;;;;147.05;15.70;;;;;;;31.84;63.01;100762.44;1765442;80;21077;-80
2021/06/21 07:07:59;;;;;;;144.85;16.17;;;;;;;32.04;63.29;100767.00;1766059;80;21017;-81
2021/06/21 07:10:26;;;;;;;151.05;17.17;;;;;;;32.35;63.65;100768.67;1765720;81;21823;-83
2021/06/21 07:12:53;;;;;;;156.47;13.95;;;;;;;32.44;60.35;100773.21;1765367;81;21430;-82
2021/06/21 07:15:19;;;;;;;154.27;15.63;;;;;;;32.43;63.70;100767.45;1765794;81;21002;-84
2021/06/21 07:17:45;;;;;;;173.95;15.68;;;;;;;32.77;60.05;100769.10;1766103;81;20970;-84
2021/06/21 07:20:13;;;;;;;152.25;15.60;;;;;;;32.74;58.63;100775.50;1765510;81;20997;-84
2021/06/21 07:22:39;;;;;;;167.05;14.73;;;;;;;32.79;58.40;100770.08;1765316;80;21987;-83
2021/06/21 07:25:06;;;;;;;148.35;17.42;;;;;;;32.89;58.22;100773.41;1765198;80;20886;-86
2021/06/21 07:27:32;;;;;;;168.15;15.23;;;;;;;32.95;58.88;100768.98;1765796;81;21122;-84
2021/06/21 07:29:58;;;;;;;149.75;15.18;;;;;;;33.10;55.66;100769.70;1765772;80;21610;-82
2021/06/21 07:32:24;;;;;;;152.17;16.17;;;;;;;33.15;56.57;100771.25;1765704;81;20847;-84
2021/06/21 07:34:50;;;;;;;162.77;17.42;;;;;;;33.18;53.25;100771.83;1765077;81;21135;-86
2021/06/21 07:37:16;;;;;;;158.37;16.27;;;;;;;33.01;54.28;100774.36;1765328;81;20953;-85
2021/06/21 07:39:42;;;;;;;178.00;17.60;;;;;;;33.10;55.41;100777.30;1765820;81;21081;-83
2021/06/21 07:42:09;;;;;;;160.52;15.20;;;;;;;33.34;55.50;100785.28;1765954;80;21037;-85
2021/06/21 07:44:35;;;;;;;133.70;14.70;;;;;;;33.50;53.75;100778.55;1765784;80;21480;-85
2021/06/21 07:47:03;;;;;;;153.45;15.53;;;;;;;33.43;54.35;100783.60;1764669;81;49712;-86
2021/06/21 07:49:30;;;;;;;157.55;16.73;;;;;;;33.56;52.87;100774.73;1765311;81;21032;-86
2021/06/21 07:51:56;;;;;;;158.78;15.38;;;;;;;33.52;53.70;100780.97;1765228;81;20978;-82
2021/06/21 07:54:23;;;;;;;163.82;16.40;;;;;;;33.45;54.60;100785.39;1783193;79;21136;-84
2021/06/21 07:56:49;;;;;;;167.03;16.60;;;;;;;33.46;53.11;100775.00;1796347;79;21016;-86
2021/06/21 07:59:15;;;;;;;142.65;16.82;;;;;;;33.58;53.63;100785.70;1796664;79;21445;-86
2021/06/21 08:01:41;;;;;;;170.95;17.07;;;;;;;33.75;52.33;100774.16;1796567;79;21523;-83
2021/06/21 08:04:07;;;;;;;127.78;14.43;;;;;;;33.55;51.49;100795.52;1796597;79;20988;-84
2021/06/21 08:06:34;;;;;;;151.07;13.88;;;;;;;33.55;54.82;100787.13;1796532;79;21049;-83
2021/06/21 08:09:00;;;;;;;158.97;16.05;;;;;;;33.68;52.21;100794.59;1796763;79;20969;-89
2021/06/21 08:11:26;;;;;;;192.82;17.07;;;;;;;33.76;51.83;100796.70;1796794;79;21236;-85
2021/06/21 08:13:51;;;;;;;189.67;18.57;;;;;;;33.83;51.56;100786.08;1774592;80;21048;-83
2021/06/21 08:16:17;;;;;;;166.10;16.62;;;;;;;34.12;51.61;100786.56;1775139;80;20951;-87
2021/06/21 08:18:44;;;;;;;137.43;15.25;;;;;;;34.25;51.76;100784.83;1774989;80;21243;-83
2021/06/21 08:21:10;;;;;;;167.07;15.40;;;;;;;34.36;51.95;100772.11;1775023;80;21054;-88
2021/06/21 08:23:36;;;;;;;157.75;16.25;;;;;;;34.48;50.35;100773.55;1774969;80;21146;-85
2021/06/21 08:26:03;;;;;;;172.68;16.75;;;;;;;34.40;50.19;100776.25;1774208;80;21659;-79
2021/06/21 08:28:29;;;;;;;182.82;18.00;;;;;;;34.42;50.88;100777.42;1777201;80;21484;-82
2021/06/21 08:30:55;;;;;;;171.72;16.15;;;;;;;34.35;50.93;100778.28;1777401;80;21007;-86
2021/06/21 08:33:21;;;;;;;163.82;16.25;;;;;;;34.48;52.24;100774.95;1756588;81;21006;-83
2021/06/21 08:35:47;;;;;;;138.88;15.98;;;;;;;34.55;49.83;100770.67;1756471;81;21108;-85
2021/06/21 08:38:13;;;;;;;159.72;17.00;;;;;;;34.45;50.16;100770.98;1789701;78;20927;-85
2021/06/21 08:40:39;;;;;;;146.68;16.48;;;;;;;34.44;49.62;100781.19;1808072;79;21579;-85
2021/06/21 08:43:05;;;;;;;151.68;16.02;;;;;;;34.36;48.27;100768.70;1785075;79;20961;-84
2021/06/21 08:45:34;;;;;;;148.45;16.05;;;;;;;34.23;48.91;100776.05;1792333;77;20891;-82
2021/06/21 08:48:00;;;;;;;142.43;15.55;;;;;;;34.16;47.28;100780.95;1787998;79;21064;-89
2021/06/21 08:50:27;;;;;;;154.55;14.85;;;;;;;34.13;49.08;100779.78;1779943;79;20924;-86
2021/06/21 08:52:54;;;;;;;140.97;14.15;;;;;;;34.34;48.67;100785.72;1781539;79;21051;-88
2021/06/21 08:55:21;;;;;;;134.27;16.07;;;;;;;34.46;49.46;100779.56;1826538;77;21538;-85
2021/06/21 08:57:49;;;;;;;105.40;13.70;;;;;;;34.70;50.90;100779.06;1802114;79;21041;-84
2021/06/21 09:00:18;;;;;;;144.35;14.03;;;;;;;35.11;48.51;100786.48;1793764;79;21219;-88
2021/06/21 09:02:49;;;;;;;128.78;14.40;;;;;;;35.06;46.37;100779.95;1783453;79;21003;-83
2021/06/21 09:05:16;;;;;;;132.72;14.03;;;;;;;34.99;47.52;100780.84;1760477;80;21026;-85
2021/06/21 09:07:44;;;;;;;143.68;14.20;;;;;;;35.07;47.87;100782.96;1790009;79;21095;-85
2021/06/21 09:10:25;;;;;;;154.10;14.00;;;;;;;34.97;46.35;100787.46;1806637;79;21062;-89
2021/06/21 09:13:16;;;;;;;117.42;13.05;;;;;;;34.87;46.18;100786.23;1713818;83;21254;-89
2021/06/21 09:15:55;;;;;;;115.22;12.47;;;;;;;34.66;46.67;100776.14;1714061;83;21030;-86
2021/06/21 09:18:34;;;;;;;130.18;12.88;;;;;;;34.45;46.65;100775.19;1713856;83;20995;-82
2021/06/21 09:21:26;;;;;;;140.35;12.30;;;;;;;34.45;48.17;100781.39;1713965;83;21156;-89
2021/06/21 09:23:56;;;;;;;134.53;14.00;;;;;;;34.55;47.15;100777.67;1714429;83;21007;-83
2021/06/21 09:26:26;;;;;;;111.70;12.07;;;;;;;34.46;47.96;100774.57;1714134;83;21063;-84
2021/06/21 09:28:53;;;;;;;107.92;12.53;;;;;;;34.44;49.36;100778.39;1714045;83;21485;-84
2021/06/21 09:31:21;;;;;;;115.20;12.35;;;;;;;34.41;49.30;100769.43;1708530;83;21058;-82
2021/06/21 09:33:52;;;;;;;114.05;11.65;;;;;;;34.36;49.69;100774.30;1714130;83;21548;-84
2021/06/21 09:36:33;;;;;;;110.90;10.32;;;;;;;34.44;49.61;100771.39;1713677;83;21082;-82
2021/06/21 09:39:25;;;;;;;87.30;9.85;;;;;;;34.30;49.89;100768.98;1713783;83;21572;-85
2021/06/21 09:42:23;;;;;;;106.72;9.63;;;;;;;34.16;49.35;100763.55;1713786;83;21042;-81
2021/06/21 09:44:56;;;;;;;105.55;9.05;;;;;;;33.93;47.18;100762.78;1713691;83;21023;-81
2021/06/21 09:47:27;;;;;;;86.55;9.28;;;;;;;33.72;46.78;100761.01;1714041;83;21094;-84
2021/06/21 09:50:20;;;;;;;82.17;8.58;;;;;;;33.47;47.39;100769.02;1741786;80;21003;-82
2021/06/21 09:52:59;;;;;;;79.40;8.25;;;;;;;33.36;49.70;100761.32;1725722;83;21091;-81
2021/06/21 09:55:31;;;;;;;66.77;8.25;;;;;;;33.41;46.55;100759.45;1718246;83;21022;-82
2021/06/21 09:58:12;;;;;;;67.72;7.33;;;;;;;33.44;46.16;100768.44;1717755;83;21042;-81
2021/06/21 10:00:48;;;;;;;68.42;7.12;;;;;;;33.40;46.52;100762.08;1717133;83;21021;-83
2021/06/21 10:03:27;;;;;;;64.07;6.78;;;;;;;33.21;45.79;100759.25;1717070;83;21560;-85
2021/06/21 10:06:09;;;;;;;72.27;7.10;;;;;;;33.05;45.20;100764.55;1717195;83;21878;-85
2021/06/21 10:08:53;;;;;;;54.10;7.62;;;;;;;33.05;46.26;100769.34;1663711;86;25857;-84
2021/06/21 10:11:40;;;;;;;52.60;6.17;;;;;;;33.12;46.89;100758.11;1665360;86;21094;-85
2021/06/21 10:14:09;;;;;;;60.12;6.22;;;;;;;33.17;46.94;100761.87;1664976;86;21092;-84
2021/06/21 10:16:36;;;;;;;64.10;6.95;;;;;;;33.20;46.31;100763.84;1638551;85;21090;-84
2021/06/21 10:19:04;;;;;;;56.08;6.15;;;;;;;33.24;47.20;100763.23;1638360;87;21067;-81
2021/06/21 10:21:32;;;;;;;39.60;5.85;;;;;;;33.09;47.86;100763.94;1638376;87;21046;-85
2021/06/21 10:23:59;;;;;;;49.05;5.47;;;;;;;33.07;45.82;100757.96;1638337;87;21104;-85
2021/06/21 10:26:25;;;;;;;46.77;4.97;;;;;;;33.08;45.89;100750.38;1638441;87;21046;-86
2021/06/21 10:28:53;;;;;;;51.15;5.10;;;;;;;33.21;45.61;100759.25;1685955;83;21080;-88
2021/06/21 10:31:25;;;;;;;48.78;4.92;;;;;;;33.09;43.32;100760.33;1716485;83;21370;-85
2021/06/21 10:33:51;;;;;;;48.05;6.05;;;;;;;33.10;44.74;100757.14;1712354;83;21062;-84
2021/06/21 10:36:17;;;;;;;52.75;6.97;;;;;;;33.13;43.20;100756.31;1716592;83;21103;-85
2021/06/21 10:38:43;;;;;;;47.85;4.85;;;;;;;33.24;45.81;100749.26;1701069;83;21023;-84
2021/06/21 10:41:11;;;;;;;39.55;4.42;;;;;;;33.36;42.30;100757.12;1687745;85;21007;-85
2021/06/21 10:43:50;;;;;;;37.75;5.25;;;;;;;33.28;42.63;100752.80;1687395;85;21907;-85
2021/06/21 10:46:31;;;;;;;44.35;5.58;;;;;;;33.31;42.93;100760.36;1687084;85;21570;-85
2021/06/21 10:49:07;;;;;;;44.60;5.50;;;;;;;33.34;42.98;100760.93;1686464;85;21036;-84
2021/06/21 10:54:30;;;;;;;42.35;4.12;;;;;;;33.40;44.98;100745.91;1575331;90;21079;-86
2021/06/21 10:56:59;;;;;;;36.83;3.92;;;;;;;33.38;39.89;100757.48;1572888;91;21173;-86
2021/06/21 10:59:27;;;;;;;24.65;4.30;;;;;;;33.35;40.33;100749.14;1572680;91;21590;-82
2021/06/21 11:01:56;;;;;;;58.55;6.22;;;;;;;33.33;38.75;100745.38;1573173;91;21127;-84
2021/06/21 11:04:39;;;;;;;32.15;4.83;;;;;;;33.40;38.40;100752.91;1573003;89;21106;-84
2021/06/21 11:07:24;;;;;;;30.30;4.55;;;;;;;33.31;38.04;100757.56;1583671;90;21044;-85
2021/06/21 11:09:55;;;;;;;40.33;4.80;;;;;;;33.13;38.33;100757.71;1583758;90;21248;-85
2021/06/21 11:12:36;;;;;;;31.02;4.50;;;;;;;33.20;38.66;100752.05;1585714;87;21823;-88
2021/06/21 11:15:16;;;;;;;30.57;4.53;;;;;;;33.18;38.73;100750.30;1629466;87;21054;-80
2021/06/21 11:17:57;;;;;;;33.25;4.35;;;;;;;33.20;40.51;100752.66;1632850;87;21090;-82
2021/06/21 11:20:44;;;;;;;36.03;4.03;;;;;;;33.21;41.82;100756.45;1632872;87;21565;-82